createdAt,value
2019-03-01T00:00:28.358Z,10.50
2019-03-01T00:02:56.278Z,10.50
2019-03-01T00:05:25.726Z,10.50
2019-03-01T00:08:07.422Z,10.60
2019-03-01T00:10:42.835Z,10.60
2019-03-01T00:13:28.695Z,10.50
2019-03-01T00:16:00.961Z,10.50
2019-03-01T00:18:46.875Z,10.50
2019-03-01T00:21:28.478Z,10.50
2019-03-01T00:24:00.648Z,10.60
2019-03-01T00:26:42.309Z,10.40
2019-03-01T00:29:17.736Z,10.40
2019-03-01T00:31:50.255Z,10.50
2019-03-01T00:34:31.754Z,10.50
2019-03-01T00:37:04.193Z,10.50
2019-03-01T00:39:39.528Z,10.50
2019-03-01T00:42:18.211Z,10.50
2019-03-01T00:44:48.875Z,10.50
2019-03-01T00:47:17.083Z,10.50
2019-03-01T00:49:44.902Z,10.40
2019-03-01T00:52:12.810Z,10.50
2019-03-01T00:54:40.717Z,10.40
2019-03-01T00:57:08.599Z,10.40
2019-03-01T00:59:36.485Z,10.20
2019-03-01T01:02:04.312Z,10.20
2019-03-01T01:04:32.239Z,10.20
2019-03-01T01:07:00.118Z,10.10
2019-03-01T01:09:28.045Z,10.00
2019-03-01T01:11:55.946Z,10.00
2019-03-01T01:14:23.826Z,9.90
2019-03-01T01:16:51.732Z,9.90
2019-03-01T01:19:19.618Z,10.00
2019-03-01T01:21:47.559Z,9.90
2019-03-01T01:24:15.438Z,9.80
2019-03-01T01:26:43.323Z,9.80
2019-03-01T01:29:11.239Z,9.80
2019-03-01T01:31:39.057Z,9.80
2019-03-01T01:34:06.909Z,9.80
2019-03-01T01:36:34.719Z,9.80
2019-03-01T01:39:02.583Z,9.90
2019-03-01T01:41:30.502Z,9.90
2019-03-01T01:43:58.395Z,9.80
2019-03-01T01:46:26.336Z,9.90
2019-03-01T01:48:54.141Z,9.70
2019-03-01T01:51:22.042Z,9.50
2019-03-01T01:53:49.950Z,9.50
2019-03-01T01:56:17.753Z,9.40
2019-03-01T01:58:45.686Z,9.50
2019-03-01T02:01:13.565Z,9.60
2019-03-01T02:03:41.441Z,9.40
2019-03-01T02:06:09.274Z,9.30
2019-03-01T02:08:37.203Z,9.30
2019-03-01T02:11:05.107Z,9.30
2019-03-01T02:13:32.985Z,9.30
2019-03-01T02:16:00.875Z,9.30
2019-03-01T02:18:28.781Z,9.10
2019-03-01T02:20:56.666Z,9.20
2019-03-01T02:23:24.600Z,9.30
2019-03-01T02:25:52.392Z,9.20
2019-03-01T02:28:20.297Z,9.30
2019-03-01T02:30:49.912Z,9.30
2019-03-01T02:33:17.789Z,9.30
2019-03-01T02:35:45.703Z,9.20
2019-03-01T02:38:13.587Z,9.30
2019-03-01T02:40:41.504Z,9.30
2019-03-01T02:43:09.397Z,9.30
2019-03-01T02:45:37.314Z,9.40
2019-03-01T02:48:05.242Z,9.40
2019-03-01T02:50:33.126Z,9.40
2019-03-01T02:53:01.026Z,9.40
2019-03-01T02:55:28.897Z,9.40
2019-03-01T02:57:56.826Z,9.40
2019-03-01T03:00:25.842Z,9.30
2019-03-01T03:02:53.742Z,9.30
2019-03-01T03:05:21.723Z,9.20
2019-03-01T03:08:03.226Z,9.10
2019-03-01T03:10:31.248Z,9.20
2019-03-01T03:13:03.025Z,9.20
2019-03-01T03:15:32.512Z,9.20
2019-03-01T03:18:00.614Z,9.20
2019-03-01T03:20:28.496Z,9.20
2019-03-01T03:22:56.406Z,9.30
2019-03-01T03:25:24.282Z,9.30
2019-03-01T03:27:52.240Z,9.40
2019-03-01T03:30:20.154Z,9.50
2019-03-01T03:32:51.288Z,9.40
2019-03-01T03:35:19.960Z,9.30
2019-03-01T03:37:50.445Z,9.30
2019-03-01T03:40:23.718Z,9.20
2019-03-01T03:42:52.911Z,9.10
2019-03-01T03:45:23.738Z,8.90
2019-03-01T03:47:54.334Z,8.90
2019-03-01T03:50:25.311Z,8.90
2019-03-01T03:52:57.076Z,9.00
2019-03-01T03:55:27.907Z,9.00
2019-03-01T03:57:58.867Z,9.00
2019-03-01T04:00:29.253Z,9.20
2019-03-01T04:03:00.208Z,9.30
2019-03-01T04:05:31.178Z,9.30
2019-03-01T04:08:02.237Z,9.10
2019-03-01T04:10:34.012Z,9.10
2019-03-01T04:13:05.029Z,9.10
2019-03-01T04:15:35.916Z,9.00
2019-03-01T04:18:06.857Z,8.90
2019-03-01T04:20:37.883Z,8.80
2019-03-01T04:23:08.698Z,8.80
2019-03-01T04:25:40.465Z,8.70
2019-03-01T04:28:11.672Z,8.70
2019-03-01T04:30:42.563Z,8.70
2019-03-01T04:33:12.442Z,8.70
2019-03-01T04:35:42.838Z,8.80
2019-03-01T04:38:13.719Z,8.80
2019-03-01T04:40:44.140Z,8.80
2019-03-01T04:43:15.499Z,8.80
2019-03-01T04:45:45.326Z,8.80
2019-03-01T04:48:16.185Z,8.80
2019-03-01T04:50:47.782Z,8.80
2019-03-01T04:53:18.327Z,9.00
2019-03-01T04:55:49.610Z,9.00
2019-03-01T04:58:20.421Z,9.20
2019-03-01T05:00:48.294Z,9.20
2019-03-01T05:03:16.219Z,9.10
2019-03-01T05:05:44.107Z,8.90
2019-03-01T05:08:12.034Z,9.00
2019-03-01T05:10:39.934Z,9.10
2019-03-01T05:13:07.724Z,9.20
2019-03-01T05:15:35.630Z,9.10
2019-03-01T05:18:03.519Z,9.00
2019-03-01T05:20:31.457Z,8.80
2019-03-01T05:22:59.328Z,8.70
2019-03-01T05:25:27.202Z,8.70
2019-03-01T05:27:55.117Z,8.70
2019-03-01T05:30:23.001Z,8.90
2019-03-01T05:32:50.913Z,8.80
2019-03-01T05:35:18.800Z,8.50
2019-03-01T05:37:46.668Z,8.50
2019-03-01T05:40:15.353Z,8.40
2019-03-01T05:42:43.262Z,8.30
2019-03-01T05:45:12.724Z,8.30
2019-03-01T05:47:40.593Z,8.20
2019-03-01T05:50:10.092Z,8.40
2019-03-01T05:52:37.960Z,8.20
2019-03-01T05:55:07.131Z,8.10
2019-03-01T05:57:35.042Z,8.10
2019-03-01T06:00:04.624Z,8.00
2019-03-01T06:02:42.982Z,8.00
2019-03-01T06:05:12.058Z,8.00
2019-03-01T06:07:44.294Z,8.00
2019-03-01T06:10:13.725Z,8.00
2019-03-01T06:12:58.115Z,8.00
2019-03-01T06:15:27.535Z,7.90
2019-03-01T06:17:57.018Z,8.10
2019-03-01T06:20:29.260Z,8.30
2019-03-01T06:22:58.717Z,8.50
2019-03-01T06:25:40.273Z,8.60
2019-03-01T06:28:12.446Z,8.70
2019-03-01T06:30:41.892Z,8.70
2019-03-01T06:33:11.371Z,8.80
2019-03-01T06:35:57.186Z,8.80
2019-03-01T06:38:43.109Z,8.90
2019-03-01T06:41:17.025Z,9.50
2019-03-01T06:43:55.632Z,10.00
2019-03-01T06:46:25.122Z,10.50
2019-03-01T06:49:01.703Z,10.80
2019-03-01T06:51:30.525Z,11.00
2019-03-01T06:53:58.351Z,11.20
2019-03-01T06:56:26.296Z,11.10
2019-03-01T06:58:54.625Z,11.50
2019-03-01T07:01:23.345Z,11.80
2019-03-01T07:03:52.384Z,12.60
2019-03-01T07:06:20.302Z,12.70
2019-03-01T07:08:48.124Z,13.30
2019-03-01T07:11:15.985Z,13.80
2019-03-01T07:13:43.906Z,13.80
2019-03-01T07:16:12.404Z,14.10
2019-03-01T07:18:40.340Z,14.70
2019-03-01T07:21:08.248Z,14.70
2019-03-01T07:23:37.023Z,14.10
2019-03-01T07:26:05.280Z,14.90
2019-03-01T07:28:33.215Z,15.00
2019-03-01T07:31:01.035Z,15.10
2019-03-01T07:33:28.970Z,15.60
2019-03-01T07:35:56.891Z,16.00
2019-03-01T07:38:24.765Z,17.00
2019-03-01T07:40:52.698Z,17.30
2019-03-01T07:43:20.623Z,17.10
2019-03-01T07:45:48.525Z,17.60
2019-03-01T07:48:16.451Z,18.20
2019-03-01T07:50:44.387Z,18.40
2019-03-01T07:53:12.278Z,18.30
2019-03-01T07:55:40.201Z,18.90
2019-03-01T07:58:08.059Z,18.20
2019-03-01T08:00:35.929Z,18.30
2019-03-01T08:03:03.881Z,18.10
2019-03-01T08:05:31.788Z,17.70
2019-03-01T08:08:02.559Z,17.80
2019-03-01T08:10:29.178Z,18.00
2019-03-01T08:12:57.108Z,18.60
2019-03-01T08:15:25.017Z,19.50
2019-03-01T08:17:53.192Z,20.80
2019-03-01T08:20:21.103Z,20.40
2019-03-01T08:22:49.774Z,20.20
2019-03-01T08:25:22.903Z,21.10
2019-03-01T08:27:50.079Z,21.10
2019-03-01T08:30:17.828Z,21.10
2019-03-01T08:32:45.772Z,21.20
2019-03-01T08:35:14.296Z,21.90
2019-03-01T08:37:42.187Z,21.90
2019-03-01T08:40:14.625Z,22.20
2019-03-01T08:42:41.186Z,22.90
2019-03-01T08:45:10.492Z,22.60
2019-03-01T08:47:38.419Z,22.00
2019-03-01T08:50:07.901Z,23.00
2019-03-01T08:52:37.213Z,23.30
2019-03-01T08:55:07.190Z,22.40
2019-03-01T08:57:44.039Z,23.00
2019-03-01T09:00:09.148Z,23.90
2019-03-01T09:02:37.062Z,23.70
2019-03-01T09:05:08.748Z,24.60
2019-03-01T09:07:35.641Z,24.40
2019-03-01T09:10:04.470Z,24.30
2019-03-01T09:12:32.354Z,24.00
2019-03-01T09:15:00.269Z,24.90
2019-03-01T09:17:28.229Z,24.00
2019-03-01T09:19:57.213Z,25.00
2019-03-01T09:22:27.991Z,25.20
2019-03-01T09:24:55.611Z,25.30
2019-03-01T09:27:26.840Z,25.70
2019-03-01T09:29:56.104Z,24.60
2019-03-01T09:32:22.635Z,23.60
2019-03-01T09:34:52.090Z,22.70
2019-03-01T09:37:20.004Z,21.60
2019-03-01T09:39:50.407Z,20.90
2019-03-01T09:42:17.459Z,20.50
2019-03-01T09:44:45.404Z,20.00
2019-03-01T09:47:13.343Z,19.10
2019-03-01T09:49:41.216Z,18.20
2019-03-01T09:52:09.139Z,18.00
2019-03-01T09:54:37.056Z,17.80
2019-03-01T09:57:04.953Z,17.30
2019-03-01T09:59:32.791Z,17.20
2019-03-01T10:02:00.719Z,17.20
2019-03-01T10:04:28.602Z,16.60
2019-03-01T10:06:56.536Z,16.20
2019-03-01T10:09:24.448Z,16.10
2019-03-01T10:11:52.339Z,16.00
2019-03-01T10:14:20.513Z,16.20
2019-03-01T10:16:50.141Z,16.80
2019-03-01T10:19:18.237Z,17.10
2019-03-01T10:21:46.699Z,17.30
2019-03-01T10:24:14.609Z,17.00
2019-03-01T10:26:43.086Z,16.80
2019-03-01T10:29:11.018Z,16.50
2019-03-01T10:31:38.974Z,16.10
2019-03-01T10:34:06.847Z,16.00
2019-03-01T10:36:34.766Z,15.60
2019-03-01T10:39:02.700Z,15.50
2019-03-01T10:41:30.603Z,15.50
2019-03-01T10:43:58.530Z,15.50
2019-03-01T10:46:26.449Z,15.60
2019-03-01T10:48:54.337Z,15.50
2019-03-01T10:51:22.261Z,15.60
2019-03-01T10:53:50.190Z,15.70
2019-03-01T10:56:18.060Z,16.40
2019-03-01T10:58:45.912Z,16.90
2019-03-01T11:01:13.842Z,17.60
2019-03-01T11:03:41.730Z,18.00
2019-03-01T11:06:09.663Z,18.70
2019-03-01T11:08:37.630Z,19.40
2019-03-01T11:11:05.470Z,20.30
2019-03-01T11:13:33.401Z,21.60
2019-03-01T11:16:01.327Z,22.40
2019-03-01T11:18:29.205Z,22.60
2019-03-01T11:20:57.129Z,22.90
2019-03-01T11:23:25.072Z,22.90
2019-03-01T11:25:52.947Z,22.90
2019-03-01T11:28:20.878Z,22.60
2019-03-01T11:30:48.803Z,21.90
2019-03-01T11:33:16.681Z,21.20
2019-03-01T11:35:44.623Z,20.90
2019-03-01T11:38:12.552Z,20.70
2019-03-01T11:40:40.422Z,20.90
2019-03-01T11:43:08.369Z,21.70
2019-03-01T11:45:36.272Z,22.60
2019-03-01T11:48:04.662Z,22.90
2019-03-01T11:50:32.579Z,23.50
2019-03-01T11:53:00.501Z,22.90
2019-03-01T11:55:28.407Z,22.40
2019-03-01T11:57:56.339Z,22.90
2019-03-01T12:00:27.496Z,22.90
2019-03-01T12:02:55.370Z,22.40
2019-03-01T12:05:23.308Z,22.00
2019-03-01T12:07:51.213Z,22.20
2019-03-01T12:10:20.668Z,21.80
2019-03-01T12:12:48.610Z,21.50
2019-03-01T12:15:16.505Z,20.80
2019-03-01T12:17:44.293Z,20.40
2019-03-01T12:20:13.347Z,20.10
2019-03-01T12:22:41.234Z,19.80
2019-03-01T12:25:10.541Z,19.80
2019-03-01T12:27:38.534Z,19.50
2019-03-01T12:30:07.984Z,19.50
2019-03-01T12:32:35.867Z,19.60
2019-03-01T12:35:03.996Z,19.60
2019-03-01T12:37:31.899Z,19.50
2019-03-01T12:39:59.714Z,19.30
2019-03-01T12:42:27.661Z,19.20
2019-03-01T12:44:55.552Z,19.10
2019-03-01T12:47:23.433Z,18.70
2019-03-01T12:49:51.386Z,18.10
2019-03-01T12:52:19.199Z,17.70
2019-03-01T12:54:47.109Z,18.10
2019-03-01T12:57:15.043Z,18.20
2019-03-01T12:59:42.935Z,18.30
2019-03-01T13:02:10.809Z,18.60
2019-03-01T13:04:38.751Z,18.10
2019-03-01T13:07:06.638Z,18.30
2019-03-01T13:09:34.522Z,18.70
2019-03-01T13:12:02.457Z,18.40
2019-03-01T13:14:30.346Z,18.30
2019-03-01T13:16:58.484Z,18.00
2019-03-01T13:19:27.796Z,17.90
2019-03-01T13:21:55.697Z,17.50
2019-03-01T13:24:23.588Z,17.60
2019-03-01T13:26:51.948Z,17.70
2019-03-01T13:29:22.293Z,17.40
2019-03-01T13:31:49.356Z,17.20
2019-03-01T13:34:17.388Z,17.30
2019-03-01T13:36:45.243Z,17.30
2019-03-01T13:39:13.246Z,17.30
2019-03-01T13:41:41.086Z,16.90
2019-03-01T13:44:08.974Z,16.60
2019-03-01T13:46:36.863Z,16.40
2019-03-01T13:49:04.807Z,16.30
2019-03-01T13:51:32.608Z,16.20
2019-03-01T13:54:00.426Z,16.10
2019-03-01T13:56:28.358Z,16.20
2019-03-01T13:58:56.232Z,16.40
2019-03-01T14:01:27.057Z,16.50
2019-03-01T14:03:53.723Z,16.60
2019-03-01T14:06:21.619Z,16.70
2019-03-01T14:08:49.507Z,16.90
2019-03-01T14:11:20.816Z,16.90
2019-03-01T14:13:47.667Z,17.00
2019-03-01T14:16:17.042Z,16.70
2019-03-01T14:18:46.077Z,16.50
2019-03-01T14:21:13.948Z,16.20
2019-03-01T14:23:41.834Z,16.20
2019-03-01T14:26:09.786Z,16.00
2019-03-01T14:28:38.055Z,15.90
2019-03-01T14:31:07.465Z,16.30
2019-03-01T14:33:36.626Z,16.50
2019-03-01T14:36:04.614Z,16.60
2019-03-01T14:38:32.501Z,16.30
2019-03-01T14:41:00.650Z,16.20
2019-03-01T14:43:28.768Z,16.30
2019-03-01T14:45:56.916Z,16.40
2019-03-01T14:48:24.831Z,16.20
2019-03-01T14:50:52.719Z,16.30
2019-03-01T14:53:20.619Z,16.20
2019-03-01T14:55:59.741Z,16.30
2019-03-01T14:58:29.240Z,16.40
2019-03-01T15:00:58.962Z,16.40
2019-03-01T15:03:33.317Z,16.40
2019-03-01T15:06:01.130Z,16.20
2019-03-01T15:08:28.938Z,16.30
2019-03-01T15:10:57.557Z,16.20
2019-03-01T15:13:27.688Z,16.20
2019-03-01T15:15:55.016Z,16.20
2019-03-01T15:18:24.977Z,16.20
2019-03-01T15:20:55.671Z,16.10
2019-03-01T15:23:24.109Z,16.10
2019-03-01T15:25:51.594Z,16.00
2019-03-01T15:28:19.478Z,16.00
2019-03-01T15:30:48.261Z,16.00
2019-03-01T15:33:16.194Z,16.00
2019-03-01T15:35:44.084Z,16.00
2019-03-01T15:38:11.969Z,15.90
2019-03-01T15:40:39.924Z,15.80
2019-03-01T15:43:09.159Z,15.70
2019-03-01T15:45:39.980Z,15.50
2019-03-01T15:48:06.887Z,15.40
2019-03-01T15:50:34.688Z,15.30
2019-03-01T15:53:02.675Z,15.30
2019-03-01T15:55:30.572Z,15.10
2019-03-01T15:57:58.477Z,15.20
2019-03-01T16:00:29.455Z,15.20
2019-03-01T16:02:55.942Z,15.10
2019-03-01T16:05:23.820Z,15.10
2019-03-01T16:07:51.702Z,15.10
2019-03-01T16:10:20.167Z,15.10
2019-03-01T16:12:48.054Z,15.10
2019-03-01T16:15:16.245Z,15.00
2019-03-01T16:17:44.164Z,15.10
2019-03-01T16:20:13.250Z,15.10
2019-03-01T16:22:41.924Z,15.10
2019-03-01T16:25:11.422Z,15.00
2019-03-01T16:27:39.320Z,14.90
2019-03-01T16:30:08.757Z,15.00
2019-03-01T16:32:36.834Z,14.90
2019-03-01T16:35:05.727Z,14.90
2019-03-01T16:37:33.602Z,14.80
2019-03-01T16:40:01.717Z,14.80
2019-03-01T16:42:37.999Z,14.70
2019-03-01T16:44:59.189Z,14.70
2019-03-01T16:47:27.126Z,14.70
2019-03-01T16:52:30.228Z,15.00
2019-03-01T16:54:58.783Z,14.10
2019-03-01T16:57:27.348Z,13.90
2019-03-01T16:59:56.063Z,15.40
2019-03-01T17:02:24.726Z,15.50
2019-03-01T17:04:53.312Z,15.00
2019-03-01T17:07:25.117Z,14.70
2019-03-01T17:09:54.897Z,14.60
2019-03-01T17:12:22.631Z,14.40
2019-03-01T17:14:51.332Z,14.20
2019-03-01T17:17:19.977Z,14.10
2019-03-01T17:19:48.613Z,14.00
2019-03-01T17:22:17.324Z,13.80
2019-03-01T17:24:48.272Z,13.70
2019-03-01T17:27:16.275Z,13.60
2019-03-01T17:29:45.826Z,13.50
2019-03-01T17:32:14.624Z,13.40
2019-03-01T17:34:43.570Z,13.30
2019-03-01T17:37:12.182Z,13.20
2019-03-01T17:39:40.835Z,13.20
2019-03-01T17:42:09.523Z,13.10
2019-03-01T17:44:41.261Z,13.10
2019-03-01T17:47:09.746Z,13.00
2019-03-01T17:49:38.810Z,13.00
2019-03-01T17:52:07.538Z,12.90
2019-03-01T17:54:36.208Z,12.90
2019-03-01T17:57:04.848Z,12.80
2019-03-01T17:59:33.550Z,12.70
2019-03-01T18:02:02.207Z,12.50
2019-03-01T18:04:33.640Z,12.40
2019-03-01T18:07:01.232Z,12.40
2019-03-01T18:09:29.893Z,12.40
2019-03-01T18:11:58.675Z,12.40
2019-03-01T18:14:27.349Z,12.40
2019-03-01T18:16:57.103Z,12.40
2019-03-01T18:19:26.656Z,12.40
2019-03-01T18:21:56.606Z,12.40
2019-03-01T18:24:25.276Z,12.40
2019-03-01T18:26:53.897Z,12.40
2019-03-01T18:29:22.621Z,12.40
2019-03-01T18:31:51.257Z,12.50
2019-03-01T18:34:19.893Z,12.40
2019-03-01T18:36:49.340Z,12.20
2019-03-01T18:39:17.993Z,12.20
2019-03-01T18:41:46.630Z,12.00
2019-03-01T18:44:15.327Z,12.00
2019-03-01T18:46:44.064Z,11.90
2019-03-01T18:49:12.714Z,11.90
2019-03-01T18:51:43.296Z,11.90
2019-03-01T18:54:11.871Z,11.80
2019-03-01T18:56:40.519Z,11.80
2019-03-01T18:59:09.224Z,11.80
2019-03-01T19:01:37.884Z,11.70
2019-03-01T19:04:06.644Z,11.60
2019-03-01T19:06:35.344Z,11.60
2019-03-01T19:09:04.675Z,11.50
2019-03-01T19:11:34.716Z,11.50
2019-03-01T19:14:03.664Z,11.40
2019-03-01T19:16:32.326Z,11.50
2019-03-01T19:19:00.948Z,11.60
2019-03-01T19:21:31.209Z,11.60
2019-03-01T19:26:28.748Z,11.70
2019-03-01T19:28:58.918Z,11.60
2019-03-01T19:31:29.163Z,11.50
2019-03-01T19:33:57.881Z,11.50
2019-03-01T19:36:26.578Z,11.50
2019-03-01T19:38:56.779Z,11.30
2019-03-01T19:41:26.374Z,11.30
2019-03-01T19:43:57.692Z,11.20
2019-03-01T19:46:26.575Z,11.10
2019-03-01T19:48:57.717Z,11.10
2019-03-01T19:51:26.474Z,11.10
2019-03-01T19:53:57.421Z,11.10
2019-03-01T19:56:25.983Z,11.10
2019-03-01T19:58:54.989Z,11.00
2019-03-01T20:01:26.366Z,10.90
2019-03-01T20:03:57.049Z,10.90
2019-03-01T20:06:25.362Z,10.90
2019-03-01T20:08:54.005Z,10.90
2019-03-01T20:11:23.370Z,10.90
2019-03-01T20:13:53.796Z,10.90
2019-03-01T20:16:23.514Z,10.90
2019-03-01T20:18:52.115Z,11.00
2019-03-01T20:21:20.827Z,11.10
2019-03-01T20:23:49.461Z,11.10
2019-03-01T20:26:18.114Z,11.00
2019-03-01T20:28:47.693Z,11.00
2019-03-01T20:31:17.122Z,10.90
2019-03-01T20:33:45.766Z,10.90
2019-03-01T20:36:17.758Z,10.80
2019-03-01T20:38:44.759Z,10.80
2019-03-01T20:41:14.955Z,10.80
2019-03-01T20:43:43.935Z,10.70
2019-03-01T20:46:12.582Z,10.80
2019-03-01T20:48:41.220Z,10.80
2019-03-01T20:51:09.918Z,10.70
2019-03-01T20:53:38.567Z,10.80
2019-03-01T20:56:09.924Z,10.90
2019-03-01T20:58:39.649Z,11.00
2019-03-01T21:01:07.854Z,11.00
2019-03-01T21:03:36.498Z,10.90
2019-03-01T21:06:05.573Z,10.70
2019-03-01T21:08:34.450Z,10.60
2019-03-01T21:11:03.102Z,10.50
2019-03-01T21:13:31.803Z,10.30
2019-03-01T21:16:00.451Z,10.50
2019-03-01T21:18:30.768Z,10.50
2019-03-01T21:20:59.452Z,10.60
2019-03-01T21:23:28.104Z,10.60
2019-03-01T21:25:56.742Z,10.60
2019-03-01T21:28:25.454Z,10.70
2019-03-01T21:30:55.624Z,10.60
2019-03-01T21:33:27.429Z,10.40
2019-03-01T21:35:54.735Z,10.30
2019-03-01T21:38:23.390Z,10.20
2019-03-01T21:40:52.042Z,10.10
2019-03-01T21:43:21.522Z,10.10
2019-03-01T21:45:50.158Z,10.30
2019-03-01T21:48:21.916Z,10.20
2019-03-01T21:50:51.132Z,10.20
2019-03-01T21:53:19.470Z,10.10
2019-03-01T21:55:48.134Z,10.10
2019-03-01T21:58:16.770Z,10.10
2019-03-01T22:00:45.409Z,10.00
2019-03-01T22:03:13.987Z,9.90
2019-03-01T22:05:45.254Z,9.80
2019-03-01T22:08:13.736Z,9.90
2019-03-01T22:10:42.675Z,9.90
2019-03-01T22:13:11.375Z,10.10
2019-03-01T22:15:40.036Z,10.20
2019-03-01T22:18:08.607Z,10.10
2019-03-01T22:20:37.238Z,10.10
2019-03-01T22:23:05.881Z,10.20
2019-03-01T22:25:37.602Z,10.10
2019-03-01T22:28:04.872Z,10.00
2019-03-01T22:30:33.810Z,10.00
2019-03-01T22:33:02.448Z,10.10
2019-03-01T22:35:31.072Z,10.00
2019-03-01T22:38:01.142Z,10.00
2019-03-01T22:40:29.911Z,9.80
2019-03-01T22:42:58.601Z,9.70
2019-03-01T22:45:27.905Z,9.60
2019-03-01T22:47:56.560Z,9.60
2019-03-01T22:50:25.276Z,9.60
2019-03-01T22:52:53.906Z,9.60
2019-03-01T22:55:22.537Z,9.60
2019-03-01T22:57:51.237Z,9.50
2019-03-01T23:00:49.688Z,9.60
2019-03-01T23:03:20.076Z,9.60
2019-03-01T23:05:49.026Z,9.40
2019-03-01T23:08:17.613Z,9.30
2019-03-01T23:10:46.332Z,9.20
2019-03-01T23:13:17.043Z,9.20
2019-03-01T23:15:45.273Z,9.20
2019-03-01T23:18:13.966Z,9.20
2019-03-01T23:20:42.606Z,9.30
2019-03-01T23:23:11.198Z,9.30
2019-03-01T23:25:42.767Z,9.30
2019-03-01T23:28:10.113Z,9.30
2019-03-01T23:30:38.777Z,9.20
2019-03-01T23:33:07.394Z,9.20
2019-03-01T23:35:36.043Z,9.20
2019-03-01T23:38:04.608Z,9.20
2019-03-01T23:40:35.870Z,9.10
2019-03-01T23:43:03.607Z,9.00
2019-03-01T23:45:32.265Z,9.00
2019-03-01T23:48:01.732Z,9.00
2019-03-01T23:50:31.584Z,9.00
2019-03-01T23:53:00.626Z,9.00
2019-03-01T23:55:29.312Z,9.00
2019-03-01T23:58:05.701Z,9.20
